Lamont, Oklahoma
Current Conditions -  °F | °C
As of 1:15 PM on Saturday 25 Oct 2014 (Local Time) from KBKN Reporting Station
Clear Clear  
Wind Chill: 81°   Ceiling: Unl
Heat Index: 82°   Visibility: 9mi
Dew Point: 63°   Wind: 7mph
Humidity: 54%   Direction: 160°SSE
Pressure: 30.04"   Gusts: NA
Location:  36.69°N, 97.56°W
Report Text: KBKN 251815Z AUTO 16006KT 9SM CLR 27/17 A3004 RMK AO2
Loading
Personal Weather Stations






























Interactive Weather Map
Tropical Storm Tracking
New forecast layout! Learn more

10-Day Weather Forecast

Advertisements
Track Severe Weather on mobile